Terminal Aerodrome Forecast
Issued by NWS

Home | Current Version | Previous Version | Text Only | Print | Product List | Glossary On
Versions: 1 2 3 4 5 6 7 8 9 10 11 12 13 14 15
000
FTUS45 KTFX 021739
TAFLWT
TAF
KLWT 021739Z 0218/0318 10011KT P6SM SCT015 BKN060
     FM022200 09011G19KT P6SM -SHRA OVC035
      TEMPO 0222/0302 5SM TSRA OVC020CB
     FM030400 12006KT P6SM BKN060
      TEMPO 0310/0314 2SM BR OVC010
     FM031500 29005KT P6SM SCT070=

USA.gov is the U.S. government's official web portal to all federal, state and local government web resources and services.